sensor_id;sensor_type;location;lat;lon;timestamp;temperature;humidity
23323;DHT22;11833;52.554;13.554;2024-02-21T00:00:51;8.30;99.90
23323;DHT22;11833;52.554;13.554;2024-02-21T00:03:17;8.30;99.90
23323;DHT22;11833;52.554;13.554;2024-02-21T00:05:43;8.20;99.90
23323;DHT22;11833;52.554;13.554;2024-02-21T00:08:09;8.30;99.90
23323;DHT22;11833;52.554;13.554;2024-02-21T00:10:34;8.20;99.90
23323;DHT22;11833;52.554;13.554;2024-02-21T00:13:00;8.20;99.90
23323;DHT22;11833;52.554;13.554;2024-02-21T00:15:26;8.20;99.90
23323;DHT22;11833;52.554;13.554;2024-02-21T00:17:52;8.20;99.90
23323;DHT22;11833;52.554;13.554;2024-02-21T00:20:18;8.30;99.90
23323;DHT22;11833;52.554;13.554;2024-02-21T00:22:44;8.30;99.90
23323;DHT22;11833;52.554;13.554;2024-02-21T00:25:10;8.30;99.90
23323;DHT22;11833;52.554;13.554;2024-02-21T00:27:36;8.30;99.90
23323;DHT22;11833;52.554;13.554;2024-02-21T00:30:02;8.40;99.90
23323;DHT22;11833;52.554;13.554;2024-02-21T00:32:28;8.40;99.90
23323;DHT22;11833;52.554;13.554;2024-02-21T00:34:54;8.30;99.90
23323;DHT22;11833;52.554;13.554;2024-02-21T00:37:20;8.30;99.90
23323;DHT22;11833;52.554;13.554;2024-02-21T00:39:46;8.20;99.90
23323;DHT22;11833;52.554;13.554;2024-02-21T00:42:11;8.30;99.90
23323;DHT22;11833;52.554;13.554;2024-02-21T00:44:37;8.30;99.90
23323;DHT22;11833;52.554;13.554;2024-02-21T00:47:03;8.20;99.90
23323;DHT22;11833;52.554;13.554;2024-02-21T00:49:28;8.20;99.90
23323;DHT22;11833;52.554;13.554;2024-02-21T00:51:54;8.20;99.90
23323;DHT22;11833;52.554;13.554;2024-02-21T00:54:20;8.30;99.90
23323;DHT22;11833;52.554;13.554;2024-02-21T00:56:45;8.30;99.90
23323;DHT22;11833;52.554;13.554;2024-02-21T00:59:11;8.30;99.90
23323;DHT22;11833;52.554;13.554;2024-02-21T01:01:37;8.40;99.90
23323;DHT22;11833;52.554;13.554;2024-02-21T01:04:03;8.30;99.90
23323;DHT22;11833;52.554;13.554;2024-02-21T01:06:29;8.40;99.90
23323;DHT22;11833;52.554;13.554;2024-02-21T01:08:54;8.30;99.90
23323;DHT22;11833;52.554;13.554;2024-02-21T01:11:20;8.40;99.90
23323;DHT22;11833;52.554;13.554;2024-02-21T01:13:46;8.30;99.90
23323;DHT22;11833;52.554;13.554;2024-02-21T01:16:11;8.20;99.90
23323;DHT22;11833;52.554;13.554;2024-02-21T01:18:37;8.40;99.90
23323;DHT22;11833;52.554;13.554;2024-02-21T01:21:05;8.40;99.90
23323;DHT22;11833;52.554;13.554;2024-02-21T01:23:37;8.40;99.90
23323;DHT22;11833;52.554;13.554;2024-02-21T01:26:06;8.40;99.90
23323;DHT22;11833;52.554;13.554;2024-02-21T01:28:34;8.40;99.90
23323;DHT22;11833;52.554;13.554;2024-02-21T01:31:00;8.40;99.90
23323;DHT22;11833;52.554;13.554;2024-02-21T01:33:26;8.40;99.90
23323;DHT22;11833;52.554;13.554;2024-02-21T01:35:52;8.40;99.90
23323;DHT22;11833;52.554;13.554;2024-02-21T01:38:18;8.40;99.90
23323;DHT22;11833;52.554;13.554;2024-02-21T01:40:44;8.40;99.90
23323;DHT22;11833;52.554;13.554;2024-02-21T01:43:17;8.40;99.90
23323;DHT22;11833;52.554;13.554;2024-02-21T01:45:48;8.40;99.90
23323;DHT22;11833;52.554;13.554;2024-02-21T01:48:17;8.40;99.90
23323;DHT22;11833;52.554;13.554;2024-02-21T01:50:47;8.40;99.90
23323;DHT22;11833;52.554;13.554;2024-02-21T01:53:17;8.50;99.90
23323;DHT22;11833;52.554;13.554;2024-02-21T01:55:48;8.60;99.90
23323;DHT22;11833;52.554;13.554;2024-02-21T01:58:15;8.60;99.90
23323;DHT22;11833;52.554;13.554;2024-02-21T02:00:42;8.60;99.90
23323;DHT22;11833;52.554;13.554;2024-02-21T02:03:12;8.60;99.90
23323;DHT22;11833;52.554;13.554;2024-02-21T02:05:45;8.60;99.90
23323;DHT22;11833;52.554;13.554;2024-02-21T02:08:15;8.50;99.90
23323;DHT22;11833;52.554;13.554;2024-02-21T02:10:41;8.40;99.90
23323;DHT22;11833;52.554;13.554;2024-02-21T02:13:07;8.40;99.90
23323;DHT22;11833;52.554;13.554;2024-02-21T02:15:44;8.50;99.90
23323;DHT22;11833;52.554;13.554;2024-02-21T02:18:12;8.40;99.90
23323;DHT22;11833;52.554;13.554;2024-02-21T02:20:39;8.40;99.90
23323;DHT22;11833;52.554;13.554;2024-02-21T02:23:31;8.50;99.90
23323;DHT22;11833;52.554;13.554;2024-02-21T02:25:57;8.40;99.90
23323;DHT22;11833;52.554;13.554;2024-02-21T02:28:24;8.40;99.90
23323;DHT22;11833;52.554;13.554;2024-02-21T02:30:50;8.40;99.90
23323;DHT22;11833;52.554;13.554;2024-02-21T02:33:16;8.40;99.90
23323;DHT22;11833;52.554;13.554;2024-02-21T02:35:45;8.40;99.90
23323;DHT22;11833;52.554;13.554;2024-02-21T02:38:11;8.40;99.90
23323;DHT22;11833;52.554;13.554;2024-02-21T02:40:39;8.30;99.90
23323;DHT22;11833;52.554;13.554;2024-02-21T02:43:06;8.10;99.90
23323;DHT22;11833;52.554;13.554;2024-02-21T02:45:32;8.00;99.90
23323;DHT22;11833;52.554;13.554;2024-02-21T02:47:58;8.00;99.90
23323;DHT22;11833;52.554;13.554;2024-02-21T02:50:25;8.00;99.90
23323;DHT22;11833;52.554;13.554;2024-02-21T02:52:51;7.90;99.90
23323;DHT22;11833;52.554;13.554;2024-02-21T02:55:17;7.90;99.90
23323;DHT22;11833;52.554;13.554;2024-02-21T02:57:43;8.00;99.90
23323;DHT22;11833;52.554;13.554;2024-02-21T03:00:13;8.00;99.90
23323;DHT22;11833;52.554;13.554;2024-02-21T03:02:41;7.90;99.90
23323;DHT22;11833;52.554;13.554;2024-02-21T03:05:15;7.80;99.90
23323;DHT22;11833;52.554;13.554;2024-02-21T03:07:42;7.80;99.90
23323;DHT22;11833;52.554;13.554;2024-02-21T03:10:10;7.80;99.90
23323;DHT22;11833;52.554;13.554;2024-02-21T03:12:36;7.70;99.90
23323;DHT22;11833;52.554;13.554;2024-02-21T03:15:02;7.70;99.90
23323;DHT22;11833;52.554;13.554;2024-02-21T03:17:28;7.90;99.90
23323;DHT22;11833;52.554;13.554;2024-02-21T03:19:54;7.90;99.90
23323;DHT22;11833;52.554;13.554;2024-02-21T03:22:25;7.80;99.90
23323;DHT22;11833;52.554;13.554;2024-02-21T03:24:51;7.80;99.90
23323;DHT22;11833;52.554;13.554;2024-02-21T03:27:16;7.80;99.90
23323;DHT22;11833;52.554;13.554;2024-02-21T03:29:42;7.80;99.90
23323;DHT22;11833;52.554;13.554;2024-02-21T03:32:08;7.80;99.90
23323;DHT22;11833;52.554;13.554;2024-02-21T03:34:34;7.80;99.90
23323;DHT22;11833;52.554;13.554;2024-02-21T03:36:59;7.80;99.90
23323;DHT22;11833;52.554;13.554;2024-02-21T03:39:25;7.70;99.90
23323;DHT22;11833;52.554;13.554;2024-02-21T03:41:51;7.70;99.90
23323;DHT22;11833;52.554;13.554;2024-02-21T03:44:17;7.60;99.90
23323;DHT22;11833;52.554;13.554;2024-02-21T03:46:42;7.70;99.90
23323;DHT22;11833;52.554;13.554;2024-02-21T03:49:08;7.80;99.90
23323;DHT22;11833;52.554;13.554;2024-02-21T03:51:34;7.70;99.90
23323;DHT22;11833;52.554;13.554;2024-02-21T03:53:59;7.80;99.90
23323;DHT22;11833;52.554;13.554;2024-02-21T03:56:25;7.80;99.90
23323;DHT22;11833;52.554;13.554;2024-02-21T03:58:51;7.80;99.90
23323;DHT22;11833;52.554;13.554;2024-02-21T04:01:16;7.60;99.90
23323;DHT22;11833;52.554;13.554;2024-02-21T04:03:44;7.70;99.90
23323;DHT22;11833;52.554;13.554;2024-02-21T04:06:09;7.70;99.90
23323;DHT22;11833;52.554;13.554;2024-02-21T04:08:35;7.80;99.90
23323;DHT22;11833;52.554;13.554;2024-02-21T04:11:01;7.70;99.90
23323;DHT22;11833;52.554;13.554;2024-02-21T04:13:27;7.70;99.90
23323;DHT22;11833;52.554;13.554;2024-02-21T04:15:52;7.60;99.90
23323;DHT22;11833;52.554;13.554;2024-02-21T04:18:18;7.60;99.90
23323;DHT22;11833;52.554;13.554;2024-02-21T04:20:44;7.50;99.90
23323;DHT22;11833;52.554;13.554;2024-02-21T04:23:10;7.60;99.90
23323;DHT22;11833;52.554;13.554;2024-02-21T04:25:36;7.70;99.90
23323;DHT22;11833;52.554;13.554;2024-02-21T04:28:02;7.70;99.90
23323;DHT22;11833;52.554;13.554;2024-02-21T04:30:28;7.70;99.90
23323;DHT22;11833;52.554;13.554;2024-02-21T04:32:54;7.70;99.90
23323;DHT22;11833;52.554;13.554;2024-02-21T04:35:19;7.60;99.90
23323;DHT22;11833;52.554;13.554;2024-02-21T04:37:45;7.70;99.90
23323;DHT22;11833;52.554;13.554;2024-02-21T04:40:11;7.70;99.90
23323;DHT22;11833;52.554;13.554;2024-02-21T04:42:37;7.70;99.90
23323;DHT22;11833;52.554;13.554;2024-02-21T04:45:03;7.70;99.90
23323;DHT22;11833;52.554;13.554;2024-02-21T04:47:29;7.70;99.90
23323;DHT22;11833;52.554;13.554;2024-02-21T04:49:55;7.80;99.90
23323;DHT22;11833;52.554;13.554;2024-02-21T04:52:20;7.80;99.90
23323;DHT22;11833;52.554;13.554;2024-02-21T04:54:46;7.70;99.90
23323;DHT22;11833;52.554;13.554;2024-02-21T04:57:12;7.70;99.90
23323;DHT22;11833;52.554;13.554;2024-02-21T04:59:45;7.80;99.90
23323;DHT22;11833;52.554;13.554;2024-02-21T05:02:11;7.80;99.90
23323;DHT22;11833;52.554;13.554;2024-02-21T05:04:37;7.80;99.90
23323;DHT22;11833;52.554;13.554;2024-02-21T05:07:04;7.80;99.90
23323;DHT22;11833;52.554;13.554;2024-02-21T05:09:30;7.80;99.90
23323;DHT22;11833;52.554;13.554;2024-02-21T05:11:56;7.90;99.90
23323;DHT22;11833;52.554;13.554;2024-02-21T05:14:23;7.80;99.90
23323;DHT22;11833;52.554;13.554;2024-02-21T05:16:49;7.90;99.90
23323;DHT22;11833;52.554;13.554;2024-02-21T05:19:15;8.00;99.90
23323;DHT22;11833;52.554;13.554;2024-02-21T05:21:40;7.90;99.90
23323;DHT22;11833;52.554;13.554;2024-02-21T05:24:06;7.90;99.90
23323;DHT22;11833;52.554;13.554;2024-02-21T05:26:32;7.90;99.90
23323;DHT22;11833;52.554;13.554;2024-02-21T05:28:57;7.90;99.90
23323;DHT22;11833;52.554;13.554;2024-02-21T05:31:25;7.90;99.90
23323;DHT22;11833;52.554;13.554;2024-02-21T05:33:51;7.90;99.90
23323;DHT22;11833;52.554;13.554;2024-02-21T05:36:16;7.90;99.90
23323;DHT22;11833;52.554;13.554;2024-02-21T05:38:42;7.90;99.90
23323;DHT22;11833;52.554;13.554;2024-02-21T05:41:08;7.90;99.90
23323;DHT22;11833;52.554;13.554;2024-02-21T05:43:33;7.90;99.90
23323;DHT22;11833;52.554;13.554;2024-02-21T05:45:59;7.90;99.90
23323;DHT22;11833;52.554;13.554;2024-02-21T05:48:25;7.80;99.90
23323;DHT22;11833;52.554;13.554;2024-02-21T05:50:51;7.90;99.90
23323;DHT22;11833;52.554;13.554;2024-02-21T05:53:17;7.90;99.90
23323;DHT22;11833;52.554;13.554;2024-02-21T05:55:42;8.00;99.90
23323;DHT22;11833;52.554;13.554;2024-02-21T05:58:08;7.90;99.90
23323;DHT22;11833;52.554;13.554;2024-02-21T06:00:39;7.90;99.90
23323;DHT22;11833;52.554;13.554;2024-02-21T06:03:05;8.10;99.90
23323;DHT22;11833;52.554;13.554;2024-02-21T06:05:35;8.00;99.90
23323;DHT22;11833;52.554;13.554;2024-02-21T06:08:02;8.00;99.90
23323;DHT22;11833;52.554;13.554;2024-02-21T06:10:28;8.00;99.90
23323;DHT22;11833;52.554;13.554;2024-02-21T06:12:54;8.00;99.90
23323;DHT22;11833;52.554;13.554;2024-02-21T06:15:20;8.00;99.90
23323;DHT22;11833;52.554;13.554;2024-02-21T06:17:45;8.00;99.90
23323;DHT22;11833;52.554;13.554;2024-02-21T06:20:11;8.00;99.90
23323;DHT22;11833;52.554;13.554;2024-02-21T06:22:37;8.00;99.90
23323;DHT22;11833;52.554;13.554;2024-02-21T06:25:03;7.90;99.90
23323;DHT22;11833;52.554;13.554;2024-02-21T06:27:29;7.90;99.90
23323;DHT22;11833;52.554;13.554;2024-02-21T06:29:55;7.90;99.90
23323;DHT22;11833;52.554;13.554;2024-02-21T06:32:20;7.90;99.90
23323;DHT22;11833;52.554;13.554;2024-02-21T06:34:46;7.90;99.90
23323;DHT22;11833;52.554;13.554;2024-02-21T06:37:12;7.80;99.90
23323;DHT22;11833;52.554;13.554;2024-02-21T06:39:37;7.90;99.90
23323;DHT22;11833;52.554;13.554;2024-02-21T06:42:03;8.00;99.90
23323;DHT22;11833;52.554;13.554;2024-02-21T06:44:29;8.00;99.90
23323;DHT22;11833;52.554;13.554;2024-02-21T06:46:55;7.90;99.90
23323;DHT22;11833;52.554;13.554;2024-02-21T06:49:20;8.00;99.90
23323;DHT22;11833;52.554;13.554;2024-02-21T06:51:46;8.00;99.90
23323;DHT22;11833;52.554;13.554;2024-02-21T06:54:12;8.10;99.90
23323;DHT22;11833;52.554;13.554;2024-02-21T06:56:39;8.10;99.90
23323;DHT22;11833;52.554;13.554;2024-02-21T06:59:05;8.10;99.90
23323;DHT22;11833;52.554;13.554;2024-02-21T07:01:31;8.10;99.90
23323;DHT22;11833;52.554;13.554;2024-02-21T07:03:57;8.20;99.90
23323;DHT22;11833;52.554;13.554;2024-02-21T07:06:23;8.20;99.90
23323;DHT22;11833;52.554;13.554;2024-02-21T07:08:48;8.10;99.90
23323;DHT22;11833;52.554;13.554;2024-02-21T07:11:14;8.10;99.90
23323;DHT22;11833;52.554;13.554;2024-02-21T07:13:40;8.10;99.90
23323;DHT22;11833;52.554;13.554;2024-02-21T07:16:06;8.00;99.90
23323;DHT22;11833;52.554;13.554;2024-02-21T07:18:32;8.00;99.90
23323;DHT22;11833;52.554;13.554;2024-02-21T07:20:58;8.00;99.90
23323;DHT22;11833;52.554;13.554;2024-02-21T07:23:24;8.00;99.90
23323;DHT22;11833;52.554;13.554;2024-02-21T07:25:50;7.90;99.90
23323;DHT22;11833;52.554;13.554;2024-02-21T07:28:16;7.90;99.90
23323;DHT22;11833;52.554;13.554;2024-02-21T07:30:42;7.90;99.90
23323;DHT22;11833;52.554;13.554;2024-02-21T07:33:08;7.90;99.90
23323;DHT22;11833;52.554;13.554;2024-02-21T07:35:34;8.00;99.90
23323;DHT22;11833;52.554;13.554;2024-02-21T07:38:06;8.00;99.90
23323;DHT22;11833;52.554;13.554;2024-02-21T07:40:31;8.00;99.90
23323;DHT22;11833;52.554;13.554;2024-02-21T07:42:57;8.10;99.90
23323;DHT22;11833;52.554;13.554;2024-02-21T07:45:23;8.10;99.90
23323;DHT22;11833;52.554;13.554;2024-02-21T07:47:50;8.10;99.90
23323;DHT22;11833;52.554;13.554;2024-02-21T07:50:16;8.20;99.90
23323;DHT22;11833;52.554;13.554;2024-02-21T07:52:42;8.20;99.90
23323;DHT22;11833;52.554;13.554;2024-02-21T07:55:08;8.10;99.90
23323;DHT22;11833;52.554;13.554;2024-02-21T07:57:36;8.10;99.90
23323;DHT22;11833;52.554;13.554;2024-02-21T08:00:02;8.20;99.90
23323;DHT22;11833;52.554;13.554;2024-02-21T08:02:35;8.20;99.90
23323;DHT22;11833;52.554;13.554;2024-02-21T08:05:00;8.20;99.90
23323;DHT22;11833;52.554;13.554;2024-02-21T08:07:26;8.20;99.90
23323;DHT22;11833;52.554;13.554;2024-02-21T08:09:54;8.20;99.90
23323;DHT22;11833;52.554;13.554;2024-02-21T08:12:20;8.20;99.90
23323;DHT22;11833;52.554;13.554;2024-02-21T08:14:45;8.20;99.90
23323;DHT22;11833;52.554;13.554;2024-02-21T08:17:11;8.40;99.90
23323;DHT22;11833;52.554;13.554;2024-02-21T08:19:37;8.40;99.90
23323;DHT22;11833;52.554;13.554;2024-02-21T08:22:03;8.20;99.90
23323;DHT22;11833;52.554;13.554;2024-02-21T08:24:28;8.20;99.90
23323;DHT22;11833;52.554;13.554;2024-02-21T08:26:54;8.40;99.90
23323;DHT22;11833;52.554;13.554;2024-02-21T08:29:20;8.40;99.90
23323;DHT22;11833;52.554;13.554;2024-02-21T08:31:45;8.40;99.90
23323;DHT22;11833;52.554;13.554;2024-02-21T08:34:11;8.40;99.90
23323;DHT22;11833;52.554;13.554;2024-02-21T08:36:38;8.40;99.90
23323;DHT22;11833;52.554;13.554;2024-02-21T08:39:04;8.60;99.90
23323;DHT22;11833;52.554;13.554;2024-02-21T08:41:34;8.90;99.90
23323;DHT22;11833;52.554;13.554;2024-02-21T08:43:59;8.70;99.90
23323;DHT22;11833;52.554;13.554;2024-02-21T08:46:26;8.70;99.90
23323;DHT22;11833;52.554;13.554;2024-02-21T08:48:55;8.70;99.90
23323;DHT22;11833;52.554;13.554;2024-02-21T08:51:21;8.70;99.90
23323;DHT22;11833;52.554;13.554;2024-02-21T08:53:48;8.80;99.90
23323;DHT22;11833;52.554;13.554;2024-02-21T08:56:13;8.70;99.90
23323;DHT22;11833;52.554;13.554;2024-02-21T08:58:40;8.70;99.90
23323;DHT22;11833;52.554;13.554;2024-02-21T09:01:06;8.70;99.90
23323;DHT22;11833;52.554;13.554;2024-02-21T09:03:36;8.60;99.90
23323;DHT22;11833;52.554;13.554;2024-02-21T09:06:06;8.70;99.90
23323;DHT22;11833;52.554;13.554;2024-02-21T09:08:33;8.70;99.90
23323;DHT22;11833;52.554;13.554;2024-02-21T09:11:02;8.80;99.90
23323;DHT22;11833;52.554;13.554;2024-02-21T09:13:28;8.80;99.90
23323;DHT22;11833;52.554;13.554;2024-02-21T09:15:54;8.80;99.90
23323;DHT22;11833;52.554;13.554;2024-02-21T09:18:20;8.80;99.90
23323;DHT22;11833;52.554;13.554;2024-02-21T09:20:45;8.90;99.90
23323;DHT22;11833;52.554;13.554;2024-02-21T09:23:11;8.90;99.90
23323;DHT22;11833;52.554;13.554;2024-02-21T09:25:37;8.90;99.90
23323;DHT22;11833;52.554;13.554;2024-02-21T09:28:03;8.80;99.90
23323;DHT22;11833;52.554;13.554;2024-02-21T09:30:31;8.80;99.90
23323;DHT22;11833;52.554;13.554;2024-02-21T09:32:57;8.80;99.90
23323;DHT22;11833;52.554;13.554;2024-02-21T09:35:27;8.80;99.90
23323;DHT22;11833;52.554;13.554;2024-02-21T09:37:54;8.80;99.90
23323;DHT22;11833;52.554;13.554;2024-02-21T09:40:20;8.90;99.90
23323;DHT22;11833;52.554;13.554;2024-02-21T09:42:47;8.90;99.90
23323;DHT22;11833;52.554;13.554;2024-02-21T09:45:23;9.00;99.90
23323;DHT22;11833;52.554;13.554;2024-02-21T09:50:43;9.20;99.90
23323;DHT22;11833;52.554;13.554;2024-02-21T09:53:12;9.30;99.90
23323;DHT22;11833;52.554;13.554;2024-02-21T09:55:39;9.40;99.90
23323;DHT22;11833;52.554;13.554;2024-02-21T09:58:07;9.40;99.90
23323;DHT22;11833;52.554;13.554;2024-02-21T10:00:35;9.40;99.90
23323;DHT22;11833;52.554;13.554;2024-02-21T10:03:01;9.60;99.90
23323;DHT22;11833;52.554;13.554;2024-02-21T10:05:26;9.60;99.90
23323;DHT22;11833;52.554;13.554;2024-02-21T10:07:53;9.70;99.90
23323;DHT22;11833;52.554;13.554;2024-02-21T10:10:20;9.70;99.90
23323;DHT22;11833;52.554;13.554;2024-02-21T10:12:51;9.60;99.90
23323;DHT22;11833;52.554;13.554;2024-02-21T10:15:21;9.50;99.90
23323;DHT22;11833;52.554;13.554;2024-02-21T10:17:58;9.50;99.90
23323;DHT22;11833;52.554;13.554;2024-02-21T10:20:26;9.70;99.90
23323;DHT22;11833;52.554;13.554;2024-02-21T10:23:05;9.70;99.90
23323;DHT22;11833;52.554;13.554;2024-02-21T10:25:35;9.70;99.90
23323;DHT22;11833;52.554;13.554;2024-02-21T10:28:04;9.60;99.90
23323;DHT22;11833;52.554;13.554;2024-02-21T10:30:29;9.60;99.90
23323;DHT22;11833;52.554;13.554;2024-02-21T10:32:56;9.60;99.90
23323;DHT22;11833;52.554;13.554;2024-02-21T10:35:40;9.60;99.90
23323;DHT22;11833;52.554;13.554;2024-02-21T10:38:06;9.60;99.90
23323;DHT22;11833;52.554;13.554;2024-02-21T10:40:32;9.70;99.90
23323;DHT22;11833;52.554;13.554;2024-02-21T10:42:59;9.80;99.90
23323;DHT22;11833;52.554;13.554;2024-02-21T10:45:30;9.90;99.90
23323;DHT22;11833;52.554;13.554;2024-02-21T10:48:01;10.00;99.90
23323;DHT22;11833;52.554;13.554;2024-02-21T10:50:47;10.10;99.90
23323;DHT22;11833;52.554;13.554;2024-02-21T10:58:57;10.20;99.90
23323;DHT22;11833;52.554;13.554;2024-02-21T11:01:23;10.10;99.90
23323;DHT22;11833;52.554;13.554;2024-02-21T11:03:54;10.10;99.90
23323;DHT22;11833;52.554;13.554;2024-02-21T11:06:21;10.00;99.90
23323;DHT22;11833;52.554;13.554;2024-02-21T11:08:58;10.00;99.90
23323;DHT22;11833;52.554;13.554;2024-02-21T11:11:54;10.10;99.90
23323;DHT22;11833;52.554;13.554;2024-02-21T11:14:21;10.00;99.90
23323;DHT22;11833;52.554;13.554;2024-02-21T11:16:47;10.00;99.90
23323;DHT22;11833;52.554;13.554;2024-02-21T11:19:21;9.90;99.90
23323;DHT22;11833;52.554;13.554;2024-02-21T11:21:48;9.90;99.90
23323;DHT22;11833;52.554;13.554;2024-02-21T11:24:28;9.80;99.90
23323;DHT22;11833;52.554;13.554;2024-02-21T11:27:14;9.90;99.90
23323;DHT22;11833;52.554;13.554;2024-02-21T11:29:49;10.00;99.90
23323;DHT22;11833;52.554;13.554;2024-02-21T11:32:20;10.20;99.90
23323;DHT22;11833;52.554;13.554;2024-02-21T11:37:25;10.50;99.90
23323;DHT22;11833;52.554;13.554;2024-02-21T11:39:57;10.50;99.90
23323;DHT22;11833;52.554;13.554;2024-02-21T11:42:25;10.60;99.90
23323;DHT22;11833;52.554;13.554;2024-02-21T11:44:52;10.70;99.90
23323;DHT22;11833;52.554;13.554;2024-02-21T11:47:18;10.90;99.90
23323;DHT22;11833;52.554;13.554;2024-02-21T11:49:48;11.10;99.90
23323;DHT22;11833;52.554;13.554;2024-02-21T11:52:16;11.30;99.90
23323;DHT22;11833;52.554;13.554;2024-02-21T11:54:44;11.60;99.90
23323;DHT22;11833;52.554;13.554;2024-02-21T11:57:10;11.60;99.90
23323;DHT22;11833;52.554;13.554;2024-02-21T11:59:36;11.70;99.90
23323;DHT22;11833;52.554;13.554;2024-02-21T12:02:03;11.60;99.90
23323;DHT22;11833;52.554;13.554;2024-02-21T12:04:29;11.60;99.90
23323;DHT22;11833;52.554;13.554;2024-02-21T12:06:58;11.60;99.90
23323;DHT22;11833;52.554;13.554;2024-02-21T12:09:24;11.60;99.90
23323;DHT22;11833;52.554;13.554;2024-02-21T12:12:00;11.50;99.90
23323;DHT22;11833;52.554;13.554;2024-02-21T12:14:29;11.50;99.90
23323;DHT22;11833;52.554;13.554;2024-02-21T12:16:59;11.60;99.90
23323;DHT22;11833;52.554;13.554;2024-02-21T12:19:30;11.90;99.90
23323;DHT22;11833;52.554;13.554;2024-02-21T12:21:59;12.30;99.90
23323;DHT22;11833;52.554;13.554;2024-02-21T12:24:27;12.60;99.90
23323;DHT22;11833;52.554;13.554;2024-02-21T12:26:54;12.70;99.90
23323;DHT22;11833;52.554;13.554;2024-02-21T12:29:22;13.30;99.90
23323;DHT22;11833;52.554;13.554;2024-02-21T12:31:50;13.40;99.90
23323;DHT22;11833;52.554;13.554;2024-02-21T12:34:16;13.40;99.90
23323;DHT22;11833;52.554;13.554;2024-02-21T12:36:46;13.40;99.90
23323;DHT22;11833;52.554;13.554;2024-02-21T12:39:14;13.50;99.90
23323;DHT22;11833;52.554;13.554;2024-02-21T12:41:41;13.50;99.90
23323;DHT22;11833;52.554;13.554;2024-02-21T12:44:10;13.40;99.90
23323;DHT22;11833;52.554;13.554;2024-02-21T12:46:39;13.60;99.90
23323;DHT22;11833;52.554;13.554;2024-02-21T12:49:05;13.70;99.90
23323;DHT22;11833;52.554;13.554;2024-02-21T12:51:33;14.40;99.90
23323;DHT22;11833;52.554;13.554;2024-02-21T12:53:59;15.30;99.90
23323;DHT22;11833;52.554;13.554;2024-02-21T12:56:26;15.90;99.20
23323;DHT22;11833;52.554;13.554;2024-02-21T12:58:53;16.50;99.90
23323;DHT22;11833;52.554;13.554;2024-02-21T13:01:19;16.10;96.00
23323;DHT22;11833;52.554;13.554;2024-02-21T13:03:45;16.20;98.30
23323;DHT22;11833;52.554;13.554;2024-02-21T13:06:12;15.70;95.50
23323;DHT22;11833;52.554;13.554;2024-02-21T13:08:38;15.10;96.80
23323;DHT22;11833;52.554;13.554;2024-02-21T13:11:05;14.70;97.60
23323;DHT22;11833;52.554;13.554;2024-02-21T13:13:31;14.50;99.20
23323;DHT22;11833;52.554;13.554;2024-02-21T13:16:00;14.10;98.30
23323;DHT22;11833;52.554;13.554;2024-02-21T13:18:26;13.80;99.90
23323;DHT22;11833;52.554;13.554;2024-02-21T13:20:51;13.60;99.90
23323;DHT22;11833;52.554;13.554;2024-02-21T13:23:17;13.40;99.90
23323;DHT22;11833;52.554;13.554;2024-02-21T13:25:43;13.20;99.90
23323;DHT22;11833;52.554;13.554;2024-02-21T13:28:11;13.10;99.90
23323;DHT22;11833;52.554;13.554;2024-02-21T13:30:36;12.90;99.90
23323;DHT22;11833;52.554;13.554;2024-02-21T13:33:02;12.80;99.90
23323;DHT22;11833;52.554;13.554;2024-02-21T13:35:28;12.60;99.90
23323;DHT22;11833;52.554;13.554;2024-02-21T13:37:54;12.40;99.90
23323;DHT22;11833;52.554;13.554;2024-02-21T13:40:20;12.40;99.90
23323;DHT22;11833;52.554;13.554;2024-02-21T13:42:45;12.40;99.90
23323;DHT22;11833;52.554;13.554;2024-02-21T13:45:11;12.10;99.90
23323;DHT22;11833;52.554;13.554;2024-02-21T13:47:37;12.00;99.90
23323;DHT22;11833;52.554;13.554;2024-02-21T13:50:04;11.90;99.90
23323;DHT22;11833;52.554;13.554;2024-02-21T13:52:31;11.90;99.90
23323;DHT22;11833;52.554;13.554;2024-02-21T13:54:58;11.80;99.90
23323;DHT22;11833;52.554;13.554;2024-02-21T13:57:24;11.80;99.90
23323;DHT22;11833;52.554;13.554;2024-02-21T13:59:50;11.70;99.90
23323;DHT22;11833;52.554;13.554;2024-02-21T14:02:16;11.70;99.90
23323;DHT22;11833;52.554;13.554;2024-02-21T14:04:42;11.70;99.90
23323;DHT22;11833;52.554;13.554;2024-02-21T14:07:08;11.70;99.90
23323;DHT22;11833;52.554;13.554;2024-02-21T14:09:34;11.60;99.90
23323;DHT22;11833;52.554;13.554;2024-02-21T14:11:59;11.60;99.90
23323;DHT22;11833;52.554;13.554;2024-02-21T14:14:25;11.60;99.90
23323;DHT22;11833;52.554;13.554;2024-02-21T14:16:51;11.60;99.90
23323;DHT22;11833;52.554;13.554;2024-02-21T14:19:17;11.50;99.90
23323;DHT22;11833;52.554;13.554;2024-02-21T14:21:44;11.50;99.90
23323;DHT22;11833;52.554;13.554;2024-02-21T14:24:10;11.60;99.90
23323;DHT22;11833;52.554;13.554;2024-02-21T14:26:37;11.50;99.90
23323;DHT22;11833;52.554;13.554;2024-02-21T14:29:03;11.50;99.90
23323;DHT22;11833;52.554;13.554;2024-02-21T14:31:32;11.50;99.90
23323;DHT22;11833;52.554;13.554;2024-02-21T14:33:58;11.50;99.90
23323;DHT22;11833;52.554;13.554;2024-02-21T14:36:23;11.50;99.90
23323;DHT22;11833;52.554;13.554;2024-02-21T14:38:49;11.50;99.90
23323;DHT22;11833;52.554;13.554;2024-02-21T14:41:17;11.50;99.90
23323;DHT22;11833;52.554;13.554;2024-02-21T14:43:43;11.40;99.90
23323;DHT22;11833;52.554;13.554;2024-02-21T14:46:10;11.50;99.90
23323;DHT22;11833;52.554;13.554;2024-02-21T14:48:37;11.50;99.90
23323;DHT22;11833;52.554;13.554;2024-02-21T14:51:04;11.50;99.90
23323;DHT22;11833;52.554;13.554;2024-02-21T14:53:30;11.50;99.90
23323;DHT22;11833;52.554;13.554;2024-02-21T14:55:56;11.50;99.90
23323;DHT22;11833;52.554;13.554;2024-02-21T14:58:23;11.50;99.90
23323;DHT22;11833;52.554;13.554;2024-02-21T15:00:49;11.40;99.90
23323;DHT22;11833;52.554;13.554;2024-02-21T15:03:16;11.40;99.90
23323;DHT22;11833;52.554;13.554;2024-02-21T15:05:45;11.40;99.90
23323;DHT22;11833;52.554;13.554;2024-02-21T15:08:11;11.40;99.90
23323;DHT22;11833;52.554;13.554;2024-02-21T15:10:37;11.40;99.90
23323;DHT22;11833;52.554;13.554;2024-02-21T15:13:03;11.40;99.90
23323;DHT22;11833;52.554;13.554;2024-02-21T15:15:29;11.40;99.90
23323;DHT22;11833;52.554;13.554;2024-02-21T15:17:56;11.40;99.90
23323;DHT22;11833;52.554;13.554;2024-02-21T15:20:22;11.50;99.90
23323;DHT22;11833;52.554;13.554;2024-02-21T15:22:47;11.60;99.90
23323;DHT22;11833;52.554;13.554;2024-02-21T15:25:15;11.60;99.90
23323;DHT22;11833;52.554;13.554;2024-02-21T15:27:42;11.50;99.90
23323;DHT22;11833;52.554;13.554;2024-02-21T15:30:09;11.50;99.90
23323;DHT22;11833;52.554;13.554;2024-02-21T15:32:35;11.40;99.90
23323;DHT22;11833;52.554;13.554;2024-02-21T15:35:03;11.40;99.90
23323;DHT22;11833;52.554;13.554;2024-02-21T15:37:31;11.30;99.90